createdAt,value
2023-09-02T22:16:17.912Z,77.98
2023-09-02T22:17:16.581Z,77.88
2023-09-02T22:18:16.616Z,77.88
2023-09-02T22:19:16.647Z,77.88
2023-09-02T22:20:16.697Z,77.84
2023-09-02T22:21:16.716Z,77.78
2023-09-02T22:22:16.986Z,77.78
2023-09-02T22:23:16.779Z,77.65
2023-09-02T22:24:16.814Z,77.98
2023-09-02T22:25:16.851Z,77.78
2023-09-02T22:26:16.866Z,77.98
2023-09-02T22:27:16.897Z,78.17
2023-09-02T22:28:16.934Z,77.88
2023-09-02T22:29:17.209Z,77.84
2023-09-02T22:30:17.006Z,78.36
2023-09-02T22:31:17.061Z,78.36
2023-09-02T22:32:17.074Z,78.17
2023-09-02T22:33:17.088Z,78.27
2023-09-02T22:34:17.118Z,78.36
2023-09-02T22:35:17.152Z,78.07
2023-09-02T22:36:17.490Z,78.27
2023-09-02T22:37:17.216Z,78.07
2023-09-02T22:38:17.251Z,78.23
2023-09-02T22:39:17.279Z,78.36
2023-09-02T22:40:17.311Z,78.27
2023-09-02T22:41:17.349Z,78.27
2023-09-02T22:42:17.669Z,78.27
2023-09-02T22:43:17.491Z,78.17
2023-09-02T22:44:17.433Z,78.17
2023-09-02T22:45:17.465Z,78.56
2023-09-02T22:46:17.773Z,78.36
2023-09-02T22:47:17.529Z,78.75
2023-09-02T22:48:17.877Z,78.75
2023-09-02T22:49:17.600Z,78.75
2023-09-02T22:50:17.625Z,78.56
2023-09-02T22:51:17.660Z,78.66
2023-09-02T22:52:17.678Z,78.75
2023-09-02T22:53:17.916Z,78.66
2023-09-02T22:55:18.022Z,78.85
2023-09-02T22:56:17.801Z,78.85
2023-09-02T22:57:17.851Z,78.56
2023-09-02T22:58:17.869Z,78.71
2023-09-02T22:59:20.248Z,78.71
2023-09-02T23:00:17.930Z,78.85
2023-09-02T23:01:18.360Z,78.66
2023-09-02T23:02:17.997Z,78.81
2023-09-02T23:03:18.289Z,78.85
2023-09-02T23:04:18.088Z,78.75
2023-09-02T23:05:18.083Z,78.85
2023-09-02T23:06:18.121Z,78.71
2023-09-02T23:07:18.150Z,78.91
2023-09-02T23:08:18.482Z,78.94
2023-09-02T23:09:18.222Z,78.66
2023-09-02T23:10:18.238Z,78.75
2023-09-02T23:11:18.269Z,78.61
2023-09-02T23:12:18.305Z,78.75
2023-09-02T23:13:18.669Z,78.75
2023-09-02T23:14:18.367Z,78.75
2023-09-02T23:15:18.683Z,78.94
2023-09-02T23:16:18.411Z,78.85
2023-09-02T23:17:18.441Z,78.81
2023-09-02T23:18:18.770Z,78.75
2023-09-02T23:19:18.505Z,78.75
2023-09-02T23:20:18.559Z,78.91
2023-09-02T23:21:18.645Z,78.75
2023-09-02T23:22:18.898Z,78.94
2023-09-02T23:23:18.639Z,78.81
2023-09-02T23:24:18.655Z,79.20
2023-09-02T23:25:18.688Z,78.71
2023-09-02T23:26:19.040Z,78.94
2023-09-02T23:27:18.753Z,79.00
2023-09-02T23:28:19.098Z,79.00
2023-09-02T23:29:19.213Z,78.94
2023-09-02T23:30:18.861Z,78.94
2023-09-02T23:31:18.908Z,79.00
2023-09-02T23:32:18.922Z,78.85
2023-09-02T23:33:18.938Z,79.00
2023-09-02T23:34:18.974Z,79.04
2023-09-02T23:35:19.001Z,78.42
2023-09-02T23:36:19.350Z,78.85
2023-09-02T23:37:19.064Z,79.00
2023-09-02T23:38:19.335Z,78.91
2023-09-02T23:39:19.204Z,78.71
2023-09-02T23:40:19.146Z,78.52
2023-09-02T23:41:19.181Z,79.04
2023-09-02T23:42:20.960Z,78.94
2023-09-02T23:43:19.490Z,79.00
2023-09-02T23:44:19.273Z,78.61
2023-09-02T23:45:19.352Z,78.61
2023-09-02T23:46:19.380Z,78.91
2023-09-02T23:47:19.366Z,78.94
2023-09-02T23:48:20.027Z,78.66
2023-09-02T23:49:19.438Z,78.81
2023-09-02T23:50:19.758Z,78.61
2023-09-02T23:51:19.489Z,78.61
2023-09-02T23:52:19.549Z,78.71
2023-09-02T23:53:19.546Z,78.85
2023-09-02T23:54:19.585Z,78.81
2023-09-02T23:55:19.629Z,78.81
2023-09-02T23:56:19.646Z,78.85
2023-09-02T23:57:19.970Z,78.81
2023-09-02T23:58:19.987Z,78.81
2023-09-02T23:59:19.729Z,78.71
